Astor, WV

5:35 AM EDT on October 24, 2014 (GMT -0400)
Flemington, WV | Change Station
CLOSE
Current Station
Personal Weather Station
Location: Flemington, WV
Elevation: 1132 ft
Nearby Weather Stations

Elev 1132 ft 39.27 °N, 80.12 °W | Updated 14 seconds ago

Partly Cloudy
Partly Cloudy
37.9 °F
Feels Like 38 °F
N
0.0
Wind Variable Wind from SE
Gusts 0.0 mph

Today
High -- | Low -- °F
--% Chance of Precip.
Yesterday
High -- | Low -- °F
Precip. -- in
7:39 AM 6:29 PM
New Moon, 0% visible
Pressure 30.10 in
Visibility 4.0 miles
Clouds Clear
Windchill 38 °F
Dew Point 38 °F
Humidity 99%
Rainfall 0.00 in
Snow Depth Not available.
UV 0 out of 12
Pollen .70 out of 12
Air Quality Not available.
Flu Activity Sporadic
METAR KCKB 240853Z 00000KT 4SM BR CLR 04/04 A3011 RMK AO2 SLP193 T00440039 53005

More Conditions Fewer Conditions

Pressure 30.10 in
Visibility 4.0 miles
Clouds Clear
Windchill 38 °F
Dew Point 38 °F
Humidity 99%
Rainfall 0.00 in
Snow Depth Not available.
UV 0 out of 12
Pollen .70 out of 12
Air Quality Not available.
Flu Activity Sporadic
METAR KCKB 240853Z 00000KT 4SM BR CLR 04/04 A3011 RMK AO2 SLP193 T00440039 53005

More Conditions Fewer Conditions

10-Day Weather Forecast

Almanac

Astronomy

Oct. 24, 2014 Rise Set
Actual Time 7:39 AM EDT 6:29 PM EDT
Civil Twilight 7:12 AM EDT 6:56 PM EDT
Nautical Twilight 6:40 AM EDT 7:27 PM EDT
Astronomical Twilight 6:09 AM EDT 7:58 PM EDT
Moon 8:16 AM EDT 7:08 PM EDT
Length of Visible Light 11h 44m
Length of Day
10h 49m
Tomorrow will be 2m 22s shorter.
New Moon, 0% of the Moon is Illuminated
Today
New Moon
Oct 30
First Quarter
Nov 6
Full
Nov 14
Last Quarter
Nov 22
New

Today's Extremes

State Highs State Lows

Community

WunderPhotos

Upload Photos

1,764,513 photos uploaded!

WunderBlogs® & News

Nearby

Snow Depth

Station Depth Elevation
No new snow has been reported.

Earthquake Activity

City Distance Mag. Time & Date
No recent earthquake activity has been reported nearby.
Minimum magnitude displayed is 2.5.

Coastal Water Temperatures

Place Temperature
No Stations Reporting

Nearby Weather Stations